sensor_id;sensor_type;location;lat;lon;timestamp;P1;durP1;ratioP1;P2;durP2;ratioP2
5022;SDS011;2530;47.990;7.866;2023-03-16T00:00:42;2.00;;;1.70;;
5022;SDS011;2530;47.990;7.866;2023-03-16T00:03:11;2.67;;;1.40;;
5022;SDS011;2530;47.990;7.866;2023-03-16T00:05:43;1.42;;;1.30;;
5022;SDS011;2530;47.990;7.866;2023-03-16T00:08:10;2.60;;;1.52;;
5022;SDS011;2530;47.990;7.866;2023-03-16T00:10:36;2.70;;;1.50;;
5022;SDS011;2530;47.990;7.866;2023-03-16T00:13:02;3.77;;;1.60;;
5022;SDS011;2530;47.990;7.866;2023-03-16T00:15:27;1.60;;;1.30;;
5022;SDS011;2530;47.990;7.866;2023-03-16T00:17:53;2.25;;;1.60;;
5022;SDS011;2530;47.990;7.866;2023-03-16T00:20:19;2.00;;;1.30;;
5022;SDS011;2530;47.990;7.866;2023-03-16T00:22:45;2.53;;;1.10;;
5022;SDS011;2530;47.990;7.866;2023-03-16T00:25:11;1.50;;;1.40;;
5022;SDS011;2530;47.990;7.866;2023-03-16T00:27:38;2.93;;;1.30;;
5022;SDS011;2530;47.990;7.866;2023-03-16T00:30:04;2.17;;;1.30;;
5022;SDS011;2530;47.990;7.866;2023-03-16T00:32:31;1.90;;;1.50;;
5022;SDS011;2530;47.990;7.866;2023-03-16T00:34:58;1.90;;;1.60;;
5022;SDS011;2530;47.990;7.866;2023-03-16T00:37:26;1.90;;;1.40;;
5022;SDS011;2530;47.990;7.866;2023-03-16T00:39:53;1.30;;;1.20;;
5022;SDS011;2530;47.990;7.866;2023-03-16T00:42:22;1.90;;;1.33;;
5022;SDS011;2530;47.990;7.866;2023-03-16T00:44:51;2.00;;;1.38;;
5022;SDS011;2530;47.990;7.866;2023-03-16T00:47:21;1.50;;;1.40;;
5022;SDS011;2530;47.990;7.866;2023-03-16T00:49:48;2.30;;;1.60;;
5022;SDS011;2530;47.990;7.866;2023-03-16T00:52:14;2.13;;;1.20;;
5022;SDS011;2530;47.990;7.866;2023-03-16T00:54:40;2.00;;;1.60;;
5022;SDS011;2530;47.990;7.866;2023-03-16T00:57:07;1.63;;;1.52;;
5022;SDS011;2530;47.990;7.866;2023-03-16T00:59:35;1.60;;;1.27;;
5022;SDS011;2530;47.990;7.866;2023-03-16T01:02:02;1.33;;;1.23;;
5022;SDS011;2530;47.990;7.866;2023-03-16T01:04:29;2.10;;;1.10;;
5022;SDS011;2530;47.990;7.866;2023-03-16T01:06:56;1.40;;;1.20;;
5022;SDS011;2530;47.990;7.866;2023-03-16T01:09:22;2.60;;;1.20;;
5022;SDS011;2530;47.990;7.866;2023-03-16T01:11:47;2.22;;;1.25;;
5022;SDS011;2530;47.990;7.866;2023-03-16T01:14:17;1.98;;;1.40;;
5022;SDS011;2530;47.990;7.866;2023-03-16T01:16:43;1.80;;;1.70;;
5022;SDS011;2530;47.990;7.866;2023-03-16T01:19:10;2.33;;;1.83;;
5022;SDS011;2530;47.990;7.866;2023-03-16T01:21:36;2.00;;;1.80;;
5022;SDS011;2530;47.990;7.866;2023-03-16T01:24:02;2.60;;;2.00;;
5022;SDS011;2530;47.990;7.866;2023-03-16T01:26:28;1.57;;;1.47;;
5022;SDS011;2530;47.990;7.866;2023-03-16T01:28:54;1.90;;;1.43;;
5022;SDS011;2530;47.990;7.866;2023-03-16T01:31:19;2.10;;;1.90;;
5022;SDS011;2530;47.990;7.866;2023-03-16T01:33:45;2.95;;;1.52;;
5022;SDS011;2530;47.990;7.866;2023-03-16T01:36:12;3.63;;;1.98;;
5022;SDS011;2530;47.990;7.866;2023-03-16T01:38:39;2.15;;;1.95;;
5022;SDS011;2530;47.990;7.866;2023-03-16T01:41:05;1.70;;;1.60;;
5022;SDS011;2530;47.990;7.866;2023-03-16T01:43:32;1.60;;;1.50;;
5022;SDS011;2530;47.990;7.866;2023-03-16T01:48:31;2.40;;;1.50;;
5022;SDS011;2530;47.990;7.866;2023-03-16T01:51:07;1.10;;;1.00;;
5022;SDS011;2530;47.990;7.866;2023-03-16T01:53:36;1.90;;;1.20;;
5022;SDS011;2530;47.990;7.866;2023-03-16T01:56:04;1.90;;;1.20;;
5022;SDS011;2530;47.990;7.866;2023-03-16T01:58:33;2.17;;;1.20;;
5022;SDS011;2530;47.990;7.866;2023-03-16T02:01:01;3.00;;;1.20;;
5022;SDS011;2530;47.990;7.866;2023-03-16T02:03:27;1.17;;;1.00;;
5022;SDS011;2530;47.990;7.866;2023-03-16T02:05:55;1.58;;;1.20;;
5022;SDS011;2530;47.990;7.866;2023-03-16T02:08:49;1.23;;;0.88;;
5022;SDS011;2530;47.990;7.866;2023-03-16T02:11:19;1.30;;;1.20;;
5022;SDS011;2530;47.990;7.866;2023-03-16T02:13:46;1.10;;;0.90;;
5022;SDS011;2530;47.990;7.866;2023-03-16T02:16:12;1.50;;;0.90;;
5022;SDS011;2530;47.990;7.866;2023-03-16T02:18:43;2.22;;;1.15;;
5022;SDS011;2530;47.990;7.866;2023-03-16T02:21:16;2.00;;;1.00;;
5022;SDS011;2530;47.990;7.866;2023-03-16T02:23:49;3.33;;;1.27;;
5022;SDS011;2530;47.990;7.866;2023-03-16T02:26:27;1.10;;;1.00;;
5022;SDS011;2530;47.990;7.866;2023-03-16T02:31:45;1.70;;;1.00;;
5022;SDS011;2530;47.990;7.866;2023-03-16T02:34:12;1.52;;;0.90;;
5022;SDS011;2530;47.990;7.866;2023-03-16T02:36:39;2.30;;;1.40;;
5022;SDS011;2530;47.990;7.866;2023-03-16T02:39:07;2.40;;;1.25;;
5022;SDS011;2530;47.990;7.866;2023-03-16T02:41:33;1.50;;;1.20;;
5022;SDS011;2530;47.990;7.866;2023-03-16T02:44:11;2.30;;;1.00;;
5022;SDS011;2530;47.990;7.866;2023-03-16T02:46:49;1.00;;;0.90;;
5022;SDS011;2530;47.990;7.866;2023-03-16T02:49:26;1.70;;;1.10;;
5022;SDS011;2530;47.990;7.866;2023-03-16T02:51:58;3.10;;;1.10;;
5022;SDS011;2530;47.990;7.866;2023-03-16T02:54:23;1.50;;;1.40;;
5022;SDS011;2530;47.990;7.866;2023-03-16T02:56:49;2.47;;;1.30;;
5022;SDS011;2530;47.990;7.866;2023-03-16T02:59:15;1.60;;;1.30;;
5022;SDS011;2530;47.990;7.866;2023-03-16T03:01:41;1.10;;;1.00;;
5022;SDS011;2530;47.990;7.866;2023-03-16T03:04:06;1.40;;;1.10;;
5022;SDS011;2530;47.990;7.866;2023-03-16T03:06:33;1.58;;;1.10;;
5022;SDS011;2530;47.990;7.866;2023-03-16T03:08:59;1.30;;;1.00;;
5022;SDS011;2530;47.990;7.866;2023-03-16T03:11:26;2.53;;;1.00;;
5022;SDS011;2530;47.990;7.866;2023-03-16T03:13:52;1.13;;;1.02;;
5022;SDS011;2530;47.990;7.866;2023-03-16T03:16:19;1.50;;;1.10;;
5022;SDS011;2530;47.990;7.866;2023-03-16T03:18:45;1.90;;;1.10;;
5022;SDS011;2530;47.990;7.866;2023-03-16T03:21:11;1.00;;;0.90;;
5022;SDS011;2530;47.990;7.866;2023-03-16T03:23:36;1.98;;;1.20;;
5022;SDS011;2530;47.990;7.866;2023-03-16T03:26:02;1.55;;;1.40;;
5022;SDS011;2530;47.990;7.866;2023-03-16T03:28:28;1.92;;;1.73;;
5022;SDS011;2530;47.990;7.866;2023-03-16T03:30:54;2.88;;;1.70;;
5022;SDS011;2530;47.990;7.866;2023-03-16T03:33:20;2.50;;;1.50;;
5022;SDS011;2530;47.990;7.866;2023-03-16T03:35:46;1.30;;;1.20;;
5022;SDS011;2530;47.990;7.866;2023-03-16T03:38:17;1.90;;;1.40;;
5022;SDS011;2530;47.990;7.866;2023-03-16T03:40:42;1.25;;;1.15;;
5022;SDS011;2530;47.990;7.866;2023-03-16T03:43:08;1.80;;;1.30;;
5022;SDS011;2530;47.990;7.866;2023-03-16T03:45:33;2.00;;;1.50;;
5022;SDS011;2530;47.990;7.866;2023-03-16T03:47:58;2.00;;;1.20;;
5022;SDS011;2530;47.990;7.866;2023-03-16T03:50:24;2.20;;;1.50;;
5022;SDS011;2530;47.990;7.866;2023-03-16T03:52:49;1.80;;;1.10;;
5022;SDS011;2530;47.990;7.866;2023-03-16T03:55:15;1.43;;;1.33;;
5022;SDS011;2530;47.990;7.866;2023-03-16T03:57:40;2.90;;;1.20;;
5022;SDS011;2530;47.990;7.866;2023-03-16T04:00:06;2.63;;;1.90;;
5022;SDS011;2530;47.990;7.866;2023-03-16T04:02:35;1.40;;;1.30;;
5022;SDS011;2530;47.990;7.866;2023-03-16T04:05:01;1.85;;;1.63;;
5022;SDS011;2530;47.990;7.866;2023-03-16T04:07:27;2.45;;;1.50;;
5022;SDS011;2530;47.990;7.866;2023-03-16T04:09:53;1.95;;;1.35;;
5022;SDS011;2530;47.990;7.866;2023-03-16T04:12:18;2.65;;;1.23;;
5022;SDS011;2530;47.990;7.866;2023-03-16T04:14:43;1.67;;;1.57;;
5022;SDS011;2530;47.990;7.866;2023-03-16T04:17:09;2.30;;;1.50;;
5022;SDS011;2530;47.990;7.866;2023-03-16T04:19:36;2.30;;;1.50;;
5022;SDS011;2530;47.990;7.866;2023-03-16T04:22:01;3.45;;;1.52;;
5022;SDS011;2530;47.990;7.866;2023-03-16T04:24:27;2.17;;;1.35;;
5022;SDS011;2530;47.990;7.866;2023-03-16T04:26:52;2.42;;;1.40;;
5022;SDS011;2530;47.990;7.866;2023-03-16T04:29:18;2.70;;;1.30;;
5022;SDS011;2530;47.990;7.866;2023-03-16T04:31:44;2.42;;;1.70;;
5022;SDS011;2530;47.990;7.866;2023-03-16T04:34:10;2.60;;;1.55;;
5022;SDS011;2530;47.990;7.866;2023-03-16T04:36:36;2.97;;;1.80;;
5022;SDS011;2530;47.990;7.866;2023-03-16T04:39:03;3.42;;;1.90;;
5022;SDS011;2530;47.990;7.866;2023-03-16T04:41:29;2.90;;;2.10;;
5022;SDS011;2530;47.990;7.866;2023-03-16T04:43:55;3.00;;;2.20;;
5022;SDS011;2530;47.990;7.866;2023-03-16T04:46:23;2.72;;;1.90;;
5022;SDS011;2530;47.990;7.866;2023-03-16T04:48:50;1.92;;;1.80;;
5022;SDS011;2530;47.990;7.866;2023-03-16T04:51:16;2.00;;;1.70;;
5022;SDS011;2530;47.990;7.866;2023-03-16T04:53:41;1.70;;;1.60;;
5022;SDS011;2530;47.990;7.866;2023-03-16T04:56:08;3.10;;;2.10;;
5022;SDS011;2530;47.990;7.866;2023-03-16T04:58:46;2.00;;;1.55;;
5022;SDS011;2530;47.990;7.866;2023-03-16T05:01:13;2.70;;;1.63;;
5022;SDS011;2530;47.990;7.866;2023-03-16T05:03:39;2.13;;;1.50;;
5022;SDS011;2530;47.990;7.866;2023-03-16T05:06:05;2.63;;;2.03;;
5022;SDS011;2530;47.990;7.866;2023-03-16T05:08:30;2.10;;;1.90;;
5022;SDS011;2530;47.990;7.866;2023-03-16T05:10:56;2.38;;;2.10;;
5022;SDS011;2530;47.990;7.866;2023-03-16T05:13:22;2.80;;;1.70;;
5022;SDS011;2530;47.990;7.866;2023-03-16T05:15:48;2.23;;;1.20;;
5022;SDS011;2530;47.990;7.866;2023-03-16T05:18:14;2.10;;;1.90;;
5022;SDS011;2530;47.990;7.866;2023-03-16T05:20:39;2.40;;;1.80;;
5022;SDS011;2530;47.990;7.866;2023-03-16T05:23:06;1.50;;;1.40;;
5022;SDS011;2530;47.990;7.866;2023-03-16T05:25:32;1.85;;;1.65;;
5022;SDS011;2530;47.990;7.866;2023-03-16T05:27:58;2.10;;;1.60;;
5022;SDS011;2530;47.990;7.866;2023-03-16T05:30:23;2.05;;;1.80;;
5022;SDS011;2530;47.990;7.866;2023-03-16T05:32:50;2.00;;;1.40;;
5022;SDS011;2530;47.990;7.866;2023-03-16T05:35:16;1.40;;;1.30;;
5022;SDS011;2530;47.990;7.866;2023-03-16T05:37:42;1.80;;;1.27;;
5022;SDS011;2530;47.990;7.866;2023-03-16T05:40:11;2.50;;;1.50;;
5022;SDS011;2530;47.990;7.866;2023-03-16T05:42:44;1.35;;;1.25;;
5022;SDS011;2530;47.990;7.866;2023-03-16T05:45:12;2.35;;;1.73;;
5022;SDS011;2530;47.990;7.866;2023-03-16T05:47:39;3.00;;;1.50;;
5022;SDS011;2530;47.990;7.866;2023-03-16T05:50:05;1.50;;;1.40;;
5022;SDS011;2530;47.990;7.866;2023-03-16T05:52:33;1.88;;;1.38;;
5022;SDS011;2530;47.990;7.866;2023-03-16T05:54:58;3.90;;;1.40;;
5022;SDS011;2530;47.990;7.866;2023-03-16T05:57:24;2.30;;;1.50;;
5022;SDS011;2530;47.990;7.866;2023-03-16T05:59:50;2.00;;;1.50;;
5022;SDS011;2530;47.990;7.866;2023-03-16T06:02:16;1.70;;;1.60;;
5022;SDS011;2530;47.990;7.866;2023-03-16T06:04:41;2.40;;;2.00;;
5022;SDS011;2530;47.990;7.866;2023-03-16T06:07:07;3.00;;;2.00;;
5022;SDS011;2530;47.990;7.866;2023-03-16T06:09:32;2.20;;;2.00;;
5022;SDS011;2530;47.990;7.866;2023-03-16T06:11:58;3.10;;;1.80;;
5022;SDS011;2530;47.990;7.866;2023-03-16T06:14:23;3.40;;;1.90;;
5022;SDS011;2530;47.990;7.866;2023-03-16T06:16:49;3.10;;;2.40;;
5022;SDS011;2530;47.990;7.866;2023-03-16T06:19:14;3.00;;;2.03;;
5022;SDS011;2530;47.990;7.866;2023-03-16T06:21:40;3.15;;;2.08;;
5022;SDS011;2530;47.990;7.866;2023-03-16T06:24:06;2.60;;;2.40;;
5022;SDS011;2530;47.990;7.866;2023-03-16T06:26:33;2.40;;;2.10;;
5022;SDS011;2530;47.990;7.866;2023-03-16T06:28:59;4.18;;;2.25;;
5022;SDS011;2530;47.990;7.866;2023-03-16T06:31:25;3.33;;;2.77;;
5022;SDS011;2530;47.990;7.866;2023-03-16T06:33:50;2.70;;;2.50;;
5022;SDS011;2530;47.990;7.866;2023-03-16T06:36:16;2.20;;;1.88;;
5022;SDS011;2530;47.990;7.866;2023-03-16T06:38:41;3.47;;;2.78;;
5022;SDS011;2530;47.990;7.866;2023-03-16T06:41:07;2.92;;;2.15;;
5022;SDS011;2530;47.990;7.866;2023-03-16T06:43:32;2.50;;;1.85;;
5022;SDS011;2530;47.990;7.866;2023-03-16T06:45:58;2.40;;;2.20;;
5022;SDS011;2530;47.990;7.866;2023-03-16T06:48:23;2.22;;;1.95;;
5022;SDS011;2530;47.990;7.866;2023-03-16T06:50:49;4.25;;;1.90;;
5022;SDS011;2530;47.990;7.866;2023-03-16T06:53:15;2.40;;;2.15;;
5022;SDS011;2530;47.990;7.866;2023-03-16T06:55:40;2.13;;;1.80;;
5022;SDS011;2530;47.990;7.866;2023-03-16T06:58:06;1.70;;;1.60;;
5022;SDS011;2530;47.990;7.866;2023-03-16T07:00:32;2.30;;;1.60;;
5022;SDS011;2530;47.990;7.866;2023-03-16T07:02:58;1.77;;;1.67;;
5022;SDS011;2530;47.990;7.866;2023-03-16T07:05:24;3.50;;;1.70;;
5022;SDS011;2530;47.990;7.866;2023-03-16T07:07:50;1.93;;;1.80;;
5022;SDS011;2530;47.990;7.866;2023-03-16T07:10:15;2.63;;;2.00;;
5022;SDS011;2530;47.990;7.866;2023-03-16T07:12:42;2.20;;;1.70;;
5022;SDS011;2530;47.990;7.866;2023-03-16T07:15:08;2.53;;;1.73;;
5022;SDS011;2530;47.990;7.866;2023-03-16T07:17:34;3.00;;;2.30;;
5022;SDS011;2530;47.990;7.866;2023-03-16T07:20:00;2.20;;;2.00;;
5022;SDS011;2530;47.990;7.866;2023-03-16T07:22:29;3.47;;;1.77;;
5022;SDS011;2530;47.990;7.866;2023-03-16T07:24:56;2.95;;;1.80;;
5022;SDS011;2530;47.990;7.866;2023-03-16T07:27:22;2.45;;;1.60;;
5022;SDS011;2530;47.990;7.866;2023-03-16T07:29:49;3.10;;;1.80;;
5022;SDS011;2530;47.990;7.866;2023-03-16T07:32:16;3.30;;;1.70;;
5022;SDS011;2530;47.990;7.866;2023-03-16T07:34:42;1.60;;;1.50;;
5022;SDS011;2530;47.990;7.866;2023-03-16T07:37:07;2.72;;;1.65;;
5022;SDS011;2530;47.990;7.866;2023-03-16T07:39:34;1.80;;;1.70;;
5022;SDS011;2530;47.990;7.866;2023-03-16T07:42:00;4.57;;;1.60;;
5022;SDS011;2530;47.990;7.866;2023-03-16T07:44:26;2.60;;;1.70;;
5022;SDS011;2530;47.990;7.866;2023-03-16T07:46:52;2.20;;;2.00;;
5022;SDS011;2530;47.990;7.866;2023-03-16T07:49:17;2.50;;;1.80;;
5022;SDS011;2530;47.990;7.866;2023-03-16T07:51:43;4.13;;;1.80;;
5022;SDS011;2530;47.990;7.866;2023-03-16T07:54:09;2.60;;;2.20;;
5022;SDS011;2530;47.990;7.866;2023-03-16T07:56:35;2.20;;;2.00;;
5022;SDS011;2530;47.990;7.866;2023-03-16T07:59:00;2.63;;;1.60;;
5022;SDS011;2530;47.990;7.866;2023-03-16T08:01:26;3.90;;;1.60;;
5022;SDS011;2530;47.990;7.866;2023-03-16T08:03:52;2.20;;;1.60;;
5022;SDS011;2530;47.990;7.866;2023-03-16T08:06:18;2.17;;;1.70;;
5022;SDS011;2530;47.990;7.866;2023-03-16T08:08:45;2.90;;;1.80;;
5022;SDS011;2530;47.990;7.866;2023-03-16T08:11:10;2.53;;;1.60;;
5022;SDS011;2530;47.990;7.866;2023-03-16T08:13:36;3.20;;;1.60;;
5022;SDS011;2530;47.990;7.866;2023-03-16T08:16:02;2.50;;;2.13;;
5022;SDS011;2530;47.990;7.866;2023-03-16T08:18:29;5.10;;;2.60;;
5022;SDS011;2530;47.990;7.866;2023-03-16T08:20:56;3.65;;;2.40;;
5022;SDS011;2530;47.990;7.866;2023-03-16T08:23:22;2.83;;;2.55;;
5022;SDS011;2530;47.990;7.866;2023-03-16T08:25:52;2.40;;;2.20;;
5022;SDS011;2530;47.990;7.866;2023-03-16T08:28:19;3.13;;;2.30;;
5022;SDS011;2530;47.990;7.866;2023-03-16T08:30:46;3.08;;;2.70;;
5022;SDS011;2530;47.990;7.866;2023-03-16T08:33:14;7.60;;;3.20;;
5022;SDS011;2530;47.990;7.866;2023-03-16T08:35:42;3.67;;;3.30;;
5022;SDS011;2530;47.990;7.866;2023-03-16T08:38:08;4.90;;;2.97;;
5022;SDS011;2530;47.990;7.866;2023-03-16T08:40:35;3.40;;;3.10;;
5022;SDS011;2530;47.990;7.866;2023-03-16T08:43:00;5.38;;;3.47;;
5022;SDS011;2530;47.990;7.866;2023-03-16T08:45:27;4.80;;;3.15;;
5022;SDS011;2530;47.990;7.866;2023-03-16T08:47:53;3.47;;;3.17;;
5022;SDS011;2530;47.990;7.866;2023-03-16T08:50:18;4.40;;;3.60;;
5022;SDS011;2530;47.990;7.866;2023-03-16T08:52:44;3.20;;;2.90;;
5022;SDS011;2530;47.990;7.866;2023-03-16T08:55:10;4.10;;;3.70;;
5022;SDS011;2530;47.990;7.866;2023-03-16T08:57:37;4.78;;;3.45;;
5022;SDS011;2530;47.990;7.866;2023-03-16T09:00:05;4.40;;;3.30;;
5022;SDS011;2530;47.990;7.866;2023-03-16T09:02:38;4.70;;;3.75;;
5022;SDS011;2530;47.990;7.866;2023-03-16T09:05:04;4.60;;;4.15;;
5022;SDS011;2530;47.990;7.866;2023-03-16T09:07:32;4.28;;;3.95;;
5022;SDS011;2530;47.990;7.866;2023-03-16T09:09:59;5.20;;;4.10;;
5022;SDS011;2530;47.990;7.866;2023-03-16T09:12:25;5.33;;;4.27;;
5022;SDS011;2530;47.990;7.866;2023-03-16T09:14:50;5.50;;;4.00;;
5022;SDS011;2530;47.990;7.866;2023-03-16T09:17:16;4.50;;;3.97;;
5022;SDS011;2530;47.990;7.866;2023-03-16T09:19:41;4.50;;;4.10;;
5022;SDS011;2530;47.990;7.866;2023-03-16T09:22:07;4.20;;;3.80;;
5022;SDS011;2530;47.990;7.866;2023-03-16T09:24:32;6.10;;;3.92;;
5022;SDS011;2530;47.990;7.866;2023-03-16T09:26:58;5.87;;;4.20;;
5022;SDS011;2530;47.990;7.866;2023-03-16T09:29:23;5.20;;;4.25;;
5022;SDS011;2530;47.990;7.866;2023-03-16T09:31:49;5.60;;;3.90;;
5022;SDS011;2530;47.990;7.866;2023-03-16T09:34:15;5.63;;;3.80;;
5022;SDS011;2530;47.990;7.866;2023-03-16T09:36:40;5.57;;;4.03;;
5022;SDS011;2530;47.990;7.866;2023-03-16T09:39:06;4.90;;;4.50;;
5022;SDS011;2530;47.990;7.866;2023-03-16T09:41:54;4.78;;;3.85;;
5022;SDS011;2530;47.990;7.866;2023-03-16T09:47:14;4.20;;;3.80;;
5022;SDS011;2530;47.990;7.866;2023-03-16T09:49:51;4.28;;;3.85;;
5022;SDS011;2530;47.990;7.866;2023-03-16T09:57:40;4.60;;;4.00;;
5022;SDS011;2530;47.990;7.866;2023-03-16T10:00:22;3.87;;;3.57;;
5022;SDS011;2530;47.990;7.866;2023-03-16T10:02:57;3.97;;;3.50;;
5022;SDS011;2530;47.990;7.866;2023-03-16T10:05:34;5.43;;;3.60;;
5022;SDS011;2530;47.990;7.866;2023-03-16T10:08:12;4.85;;;3.00;;
5022;SDS011;2530;47.990;7.866;2023-03-16T10:13:47;3.50;;;3.20;;
5022;SDS011;2530;47.990;7.866;2023-03-16T10:16:18;4.05;;;3.03;;
5022;SDS011;2530;47.990;7.866;2023-03-16T10:18:49;3.50;;;3.20;;
5022;SDS011;2530;47.990;7.866;2023-03-16T10:21:22;3.60;;;3.30;;
5022;SDS011;2530;47.990;7.866;2023-03-16T10:23:48;4.20;;;3.00;;
5022;SDS011;2530;47.990;7.866;2023-03-16T10:26:20;3.40;;;3.10;;
5022;SDS011;2530;47.990;7.866;2023-03-16T10:28:50;4.55;;;3.08;;
5022;SDS011;2530;47.990;7.866;2023-03-16T10:31:17;3.28;;;2.90;;
5022;SDS011;2530;47.990;7.866;2023-03-16T10:33:45;4.80;;;2.60;;
5022;SDS011;2530;47.990;7.866;2023-03-16T10:36:14;3.33;;;3.03;;
5022;SDS011;2530;47.990;7.866;2023-03-16T10:38:50;4.57;;;3.20;;
5022;SDS011;2530;47.990;7.866;2023-03-16T10:41:32;3.90;;;2.60;;
5022;SDS011;2530;47.990;7.866;2023-03-16T10:44:22;2.90;;;2.70;;
5022;SDS011;2530;47.990;7.866;2023-03-16T10:46:48;4.30;;;2.80;;
5022;SDS011;2530;47.990;7.866;2023-03-16T10:49:33;3.00;;;2.70;;
5022;SDS011;2530;47.990;7.866;2023-03-16T10:52:05;3.00;;;2.40;;
5022;SDS011;2530;47.990;7.866;2023-03-16T10:54:37;4.50;;;2.60;;
5022;SDS011;2530;47.990;7.866;2023-03-16T11:00:04;2.57;;;2.37;;
5022;SDS011;2530;47.990;7.866;2023-03-16T11:02:40;3.58;;;2.60;;
5022;SDS011;2530;47.990;7.866;2023-03-16T11:05:23;4.85;;;2.80;;
5022;SDS011;2530;47.990;7.866;2023-03-16T11:07:55;2.58;;;2.38;;
5022;SDS011;2530;47.990;7.866;2023-03-16T11:10:32;3.30;;;2.70;;
5022;SDS011;2530;47.990;7.866;2023-03-16T11:15:32;3.57;;;2.73;;
5022;SDS011;2530;47.990;7.866;2023-03-16T11:18:03;4.38;;;2.60;;
5022;SDS011;2530;47.990;7.866;2023-03-16T11:20:31;2.60;;;2.40;;
5022;SDS011;2530;47.990;7.866;2023-03-16T11:22:58;3.13;;;2.50;;
5022;SDS011;2530;47.990;7.866;2023-03-16T11:25:39;2.53;;;2.33;;
5022;SDS011;2530;47.990;7.866;2023-03-16T11:28:12;2.97;;;2.05;;
5022;SDS011;2530;47.990;7.866;2023-03-16T11:30:54;4.30;;;2.28;;
5022;SDS011;2530;47.990;7.866;2023-03-16T11:33:25;3.28;;;2.40;;
5022;SDS011;2530;47.990;7.866;2023-03-16T11:38:52;2.67;;;2.10;;
5022;SDS011;2530;47.990;7.866;2023-03-16T11:41:39;2.42;;;2.17;;
5022;SDS011;2530;47.990;7.866;2023-03-16T11:46:51;3.85;;;2.30;;
5022;SDS011;2530;47.990;7.866;2023-03-16T11:55:00;3.15;;;2.20;;
5022;SDS011;2530;47.990;7.866;2023-03-16T11:57:52;3.58;;;2.03;;
5022;SDS011;2530;47.990;7.866;2023-03-16T12:08:33;2.20;;;2.00;;
5022;SDS011;2530;47.990;7.866;2023-03-16T12:11:33;3.07;;;2.03;;
5022;SDS011;2530;47.990;7.866;2023-03-16T12:14:12;3.00;;;2.20;;
5022;SDS011;2530;47.990;7.866;2023-03-16T12:19:48;3.20;;;2.05;;
5022;SDS011;2530;47.990;7.866;2023-03-16T12:25:01;2.13;;;1.92;;
5022;SDS011;2530;47.990;7.866;2023-03-16T12:44:12;2.95;;;2.53;;
5022;SDS011;2530;47.990;7.866;2023-03-16T12:49:46;2.55;;;2.20;;
5022;SDS011;2530;47.990;7.866;2023-03-16T12:52:13;2.40;;;1.83;;
5022;SDS011;2530;47.990;7.866;2023-03-16T12:54:48;1.73;;;1.63;;
5022;SDS011;2530;47.990;7.866;2023-03-16T12:57:15;2.70;;;2.00;;
5022;SDS011;2530;47.990;7.866;2023-03-16T12:59:43;2.20;;;2.00;;
5022;SDS011;2530;47.990;7.866;2023-03-16T13:02:23;2.50;;;2.08;;
5022;SDS011;2530;47.990;7.866;2023-03-16T13:04:54;3.05;;;1.80;;
5022;SDS011;2530;47.990;7.866;2023-03-16T13:07:26;3.25;;;2.03;;
5022;SDS011;2530;47.990;7.866;2023-03-16T13:09:56;2.80;;;2.10;;
5022;SDS011;2530;47.990;7.866;2023-03-16T13:12:27;2.63;;;2.30;;
5022;SDS011;2530;47.990;7.866;2023-03-16T13:14:56;2.47;;;2.10;;
5022;SDS011;2530;47.990;7.866;2023-03-16T13:17:23;2.97;;;2.20;;
5022;SDS011;2530;47.990;7.866;2023-03-16T13:19:58;1.88;;;1.77;;
5022;SDS011;2530;47.990;7.866;2023-03-16T13:22:39;1.90;;;1.80;;
5022;SDS011;2530;47.990;7.866;2023-03-16T13:27:55;2.20;;;1.70;;
5022;SDS011;2530;47.990;7.866;2023-03-16T13:30:24;3.17;;;1.80;;
5022;SDS011;2530;47.990;7.866;2023-03-16T13:35:39;2.20;;;1.60;;
5022;SDS011;2530;47.990;7.866;2023-03-16T13:38:05;1.77;;;1.60;;
5022;SDS011;2530;47.990;7.866;2023-03-16T13:40:37;2.08;;;1.60;;
5022;SDS011;2530;47.990;7.866;2023-03-16T13:43:13;1.90;;;1.70;;
5022;SDS011;2530;47.990;7.866;2023-03-16T13:45:40;2.00;;;1.30;;
5022;SDS011;2530;47.990;7.866;2023-03-16T13:48:06;1.77;;;1.60;;
5022;SDS011;2530;47.990;7.866;2023-03-16T13:50:35;3.37;;;1.77;;
5022;SDS011;2530;47.990;7.866;2023-03-16T13:53:04;2.00;;;1.40;;
5022;SDS011;2530;47.990;7.866;2023-03-16T13:55:38;2.45;;;1.80;;
5022;SDS011;2530;47.990;7.866;2023-03-16T13:58:12;2.33;;;1.80;;
5022;SDS011;2530;47.990;7.866;2023-03-16T14:01:03;1.80;;;1.70;;
5022;SDS011;2530;47.990;7.866;2023-03-16T14:03:36;1.90;;;1.80;;
5022;SDS011;2530;47.990;7.866;2023-03-16T14:06:03;1.85;;;1.60;;
5022;SDS011;2530;47.990;7.866;2023-03-16T14:08:30;4.25;;;1.60;;
5022;SDS011;2530;47.990;7.866;2023-03-16T14:10:58;2.63;;;1.80;;
5022;SDS011;2530;47.990;7.866;2023-03-16T14:13:30;1.60;;;1.40;;
5022;SDS011;2530;47.990;7.866;2023-03-16T14:18:47;1.63;;;1.40;;
5022;SDS011;2530;47.990;7.866;2023-03-16T14:21:20;2.33;;;1.60;;
5022;SDS011;2530;47.990;7.866;2023-03-16T14:23:51;2.00;;;1.63;;
5022;SDS011;2530;47.990;7.866;2023-03-16T14:26:20;3.22;;;1.50;;
5022;SDS011;2530;47.990;7.866;2023-03-16T14:28:54;1.70;;;1.60;;
5022;SDS011;2530;47.990;7.866;2023-03-16T14:31:31;1.60;;;1.50;;
5022;SDS011;2530;47.990;7.866;2023-03-16T14:34:00;2.50;;;1.77;;
5022;SDS011;2530;47.990;7.866;2023-03-16T14:36:33;2.90;;;1.53;;
5022;SDS011;2530;47.990;7.866;2023-03-16T14:39:08;2.40;;;1.60;;
5022;SDS011;2530;47.990;7.866;2023-03-16T14:41:38;1.90;;;1.70;;
5022;SDS011;2530;47.990;7.866;2023-03-16T14:44:04;2.70;;;1.80;;
5022;SDS011;2530;47.990;7.866;2023-03-16T14:46:39;1.83;;;1.50;;
5022;SDS011;2530;47.990;7.866;2023-03-16T14:49:08;2.40;;;1.40;;
5022;SDS011;2530;47.990;7.866;2023-03-16T14:51:43;1.70;;;1.40;;
5022;SDS011;2530;47.990;7.866;2023-03-16T14:54:11;1.65;;;1.40;;
5022;SDS011;2530;47.990;7.866;2023-03-16T14:56:37;2.15;;;1.48;;
5022;SDS011;2530;47.990;7.866;2023-03-16T14:59:03;1.53;;;1.43;;
5022;SDS011;2530;47.990;7.866;2023-03-16T15:01:29;2.15;;;1.70;;
5022;SDS011;2530;47.990;7.866;2023-03-16T15:03:55;1.90;;;1.40;;
5022;SDS011;2530;47.990;7.866;2023-03-16T15:06:21;2.00;;;1.40;;
5022;SDS011;2530;47.990;7.866;2023-03-16T15:08:46;1.63;;;1.27;;
5022;SDS011;2530;47.990;7.866;2023-03-16T15:11:12;1.73;;;1.40;;
5022;SDS011;2530;47.990;7.866;2023-03-16T15:13:45;3.03;;;2.00;;
5022;SDS011;2530;47.990;7.866;2023-03-16T15:16:12;3.50;;;1.60;;
5022;SDS011;2530;47.990;7.866;2023-03-16T15:18:38;2.25;;;1.88;;
5022;SDS011;2530;47.990;7.866;2023-03-16T15:21:08;2.83;;;1.73;;
5022;SDS011;2530;47.990;7.866;2023-03-16T15:23:40;2.17;;;1.60;;
5022;SDS011;2530;47.990;7.866;2023-03-16T15:26:08;2.60;;;1.70;;
5022;SDS011;2530;47.990;7.866;2023-03-16T15:28:43;2.47;;;1.73;;
5022;SDS011;2530;47.990;7.866;2023-03-16T15:31:09;3.20;;;1.90;;
5022;SDS011;2530;47.990;7.866;2023-03-16T15:33:36;2.70;;;1.70;;
5022;SDS011;2530;47.990;7.866;2023-03-16T15:36:05;3.47;;;2.10;;
5022;SDS011;2530;47.990;7.866;2023-03-16T15:38:38;2.58;;;1.90;;
5022;SDS011;2530;47.990;7.866;2023-03-16T15:41:09;2.83;;;1.65;;
5022;SDS011;2530;47.990;7.866;2023-03-16T15:43:35;2.00;;;1.80;;
5022;SDS011;2530;47.990;7.866;2023-03-16T15:46:01;2.60;;;1.63;;
5022;SDS011;2530;47.990;7.866;2023-03-16T15:48:29;2.83;;;1.80;;
5022;SDS011;2530;47.990;7.866;2023-03-16T15:50:56;2.63;;;1.55;;
5022;SDS011;2530;47.990;7.866;2023-03-16T15:53:34;4.30;;;1.52;;
5022;SDS011;2530;47.990;7.866;2023-03-16T15:56:07;2.90;;;1.60;;
5022;SDS011;2530;47.990;7.866;2023-03-16T15:58:35;1.93;;;1.70;;
5022;SDS011;2530;47.990;7.866;2023-03-16T16:01:04;2.22;;;1.90;;
5022;SDS011;2530;47.990;7.866;2023-03-16T16:03:31;2.90;;;1.70;;
5022;SDS011;2530;47.990;7.866;2023-03-16T16:05:57;2.17;;;1.90;;
5022;SDS011;2530;47.990;7.866;2023-03-16T16:08:23;3.38;;;2.10;;
5022;SDS011;2530;47.990;7.866;2023-03-16T16:10:49;2.60;;;2.40;;
5022;SDS011;2530;47.990;7.866;2023-03-16T16:13:27;3.05;;;2.30;;
5022;SDS011;2530;47.990;7.866;2023-03-16T16:15:55;4.95;;;2.20;;
5022;SDS011;2530;47.990;7.866;2023-03-16T16:20:54;2.55;;;2.35;;
5022;SDS011;2530;47.990;7.866;2023-03-16T16:23:21;2.20;;;2.00;;
5022;SDS011;2530;47.990;7.866;2023-03-16T16:25:47;2.10;;;1.90;;
5022;SDS011;2530;47.990;7.866;2023-03-16T16:28:18;4.50;;;2.33;;
5022;SDS011;2530;47.990;7.866;2023-03-16T16:30:47;3.05;;;2.50;;
5022;SDS011;2530;47.990;7.866;2023-03-16T16:33:19;2.58;;;2.00;;
5022;SDS011;2530;47.990;7.866;2023-03-16T16:35:46;2.20;;;2.00;;
5022;SDS011;2530;47.990;7.866;2023-03-16T16:38:12;3.03;;;2.47;;
5022;SDS011;2530;47.990;7.866;2023-03-16T16:40:37;3.53;;;2.40;;